Jamestown, ND

12:52 PM CST on January 28, 2015 (GMT -0600)
Leapaldt Addition | Change Station
CLOSE
Current Station
Personal Weather Station
Location: Jamestown, ND
Elevation: 1486 ft
Nearby Weather Stations

Elev 1486 ft 46.93 °N, 98.69 °W | Updated 13 minutes ago

Overcast
Overcast
32.4 °F
Feels Like 29 °F
N
3.7
Wind Variable Wind from SW

Today
High -- | Low -- °F
--% Chance of Precip.
Yesterday
High -- | Low -- °F
Precip. -- in
8:04 AM 5:31 PM
Waxing Gibbous, 67% visible
Pressure 29.73 in
Visibility 1.0 miles
Clouds Overcast 200 ft
Windchill 29 °F
Dew Point 32 °F
Humidity 99%
Rainfall 0.00 in
Snow Depth Not available.
UV 1 out of 12
Pollen .10 out of 12
Air Quality Not available.
Flu Activity Not available.
SPECI KJMS 281810Z AUTO 30004KT 1SM BR OVC002 00/M01 A2973 RMK AO2 T00001006

More Conditions Fewer Conditions

Pressure 29.73 in
Visibility 1.0 miles
Clouds Overcast 200 ft
Windchill 29 °F
Dew Point 32 °F
Humidity 99%
Rainfall 0.00 in
Snow Depth Not available.
UV 1 out of 12
Pollen .10 out of 12
Air Quality Not available.
Flu Activity Not available.
SPECI KJMS 281810Z AUTO 30004KT 1SM BR OVC002 00/M01 A2973 RMK AO2 T00001006

More Conditions Fewer Conditions

10-Day Weather Forecast

Almanac

Astronomy

Jan. 28, 2015 Rise Set
Actual Time
Civil Twilight
Nautical Twilight
Astronomical Twilight
Moon
Length of Visible Light
Length of Day
Tomorrow will be .
, % of the Moon is Illuminated

Today's Extremes

State Highs State Lows

Community

WunderPhotos

Upload Photos

1,791,241 photos uploaded!

WunderBlogs® & News

Nearby

Air Quality

  Air Quality AQ Index Pollutant
Not available.

Snow Depth

Station Depth Elevation

Earthquake Activity

City Distance Mag. Time & Date
Minimum magnitude displayed is 2.5.

Coastal Water Temperatures

Place Temperature

Nearby Weather Stations